createdAt,value
2022-10-17T00:00:49.920Z,13.64
2022-10-17T00:03:31.143Z,13.64
2022-10-17T00:05:58.485Z,13.62
2022-10-17T00:08:25.349Z,13.58
2022-10-17T00:10:57.552Z,13.55
2022-10-17T00:13:25.042Z,13.45
2022-10-17T00:15:52.547Z,13.37
2022-10-17T00:18:19.500Z,13.35
2022-10-17T00:20:46.525Z,13.32
2022-10-17T00:23:13.291Z,13.31
2022-10-17T00:25:40.735Z,13.27
2022-10-17T00:28:12.188Z,13.27
2022-10-17T00:30:39.845Z,13.28
2022-10-17T00:33:06.690Z,13.31
2022-10-17T00:35:33.693Z,13.33
2022-10-17T00:38:00.504Z,13.35
2022-10-17T00:40:27.493Z,13.37
2022-10-17T00:42:54.283Z,13.40
2022-10-17T00:45:22.665Z,13.43
2022-10-17T00:47:55.897Z,13.45
2022-10-17T00:50:24.921Z,13.45
2022-10-17T00:52:52.610Z,13.45
2022-10-17T00:55:31.089Z,13.46
2022-10-17T00:58:00.756Z,13.49
2022-10-17T01:00:27.872Z,13.46
2022-10-17T01:02:54.770Z,13.42
2022-10-17T01:05:22.557Z,13.40
2022-10-17T01:07:52.447Z,13.35
2022-10-17T01:10:20.795Z,13.33
2022-10-17T01:13:00.230Z,13.28
2022-10-17T01:16:00.072Z,13.26
2022-10-17T01:18:59.309Z,13.26
2022-10-17T01:21:33.722Z,13.27
2022-10-17T01:24:26.696Z,13.30
2022-10-17T01:26:59.855Z,13.36
2022-10-17T01:29:41.712Z,13.40
2022-10-17T01:32:29.789Z,13.41
2022-10-17T01:35:02.658Z,13.49
2022-10-17T01:37:37.937Z,13.56
2022-10-17T01:40:33.717Z,13.59
2022-10-17T01:43:18.525Z,13.61
2022-10-17T01:46:23.983Z,13.64
2022-10-17T01:48:52.804Z,13.62
2022-10-17T01:51:27.655Z,13.60
2022-10-17T01:54:01.005Z,13.62
2022-10-17T01:56:31.685Z,13.61
2022-10-17T01:59:08.723Z,13.64
2022-10-17T02:01:38.199Z,13.61
2022-10-17T02:04:08.097Z,13.57
2022-10-17T02:06:36.360Z,13.55
2022-10-17T02:09:16.981Z,13.60
2022-10-17T02:12:05.377Z,13.60
2022-10-17T02:14:46.105Z,13.58
2022-10-17T02:17:40.790Z,13.57
2022-10-17T02:20:31.446Z,13.60
2022-10-17T02:23:22.801Z,13.58
2022-10-17T02:26:31.323Z,13.56
2022-10-17T02:29:09.154Z,13.56
2022-10-17T02:31:48.833Z,13.51
2022-10-17T02:34:26.469Z,13.47
2022-10-17T02:36:58.473Z,13.45
2022-10-17T02:39:28.473Z,13.40
2022-10-17T02:41:58.006Z,13.36
2022-10-17T02:44:25.475Z,13.30
2022-10-17T02:46:59.528Z,13.30
2022-10-17T02:49:31.519Z,13.33
2022-10-17T02:52:04.698Z,13.34
2022-10-17T02:54:41.807Z,13.39
2022-10-17T02:57:22.230Z,13.36
2022-10-17T02:59:50.227Z,13.38
2022-10-17T03:02:17.825Z,13.31
2022-10-17T03:04:46.061Z,13.26
2022-10-17T03:07:13.212Z,13.22
2022-10-17T03:09:39.959Z,13.18
2022-10-17T03:12:06.994Z,13.17
2022-10-17T03:14:33.749Z,13.20
2022-10-17T03:17:00.977Z,13.25
2022-10-17T03:19:27.732Z,13.26
2022-10-17T03:21:54.938Z,13.25
2022-10-17T03:24:21.695Z,13.23
2022-10-17T03:26:48.674Z,13.22
2022-10-17T03:29:15.423Z,13.22
2022-10-17T03:31:42.422Z,13.21
2022-10-17T03:34:09.201Z,13.28
2022-10-17T03:36:36.165Z,13.35
2022-10-17T03:39:02.971Z,13.42
2022-10-17T03:41:29.960Z,13.42
2022-10-17T03:43:56.728Z,13.41
2022-10-17T03:46:23.751Z,13.39
2022-10-17T03:48:50.547Z,13.36
2022-10-17T03:51:17.789Z,13.34
2022-10-17T03:53:44.659Z,13.35
2022-10-17T03:56:20.099Z,13.33
2022-10-17T03:58:46.957Z,13.30
2022-10-17T04:01:16.343Z,13.26
2022-10-17T04:03:43.592Z,13.27
2022-10-17T04:06:13.780Z,13.26
2022-10-17T04:08:40.822Z,13.27
2022-10-17T04:11:08.627Z,13.26
2022-10-17T04:13:36.284Z,13.25
2022-10-17T04:16:06.810Z,13.23
2022-10-17T04:18:34.030Z,13.21
2022-10-17T04:21:05.492Z,13.20
2022-10-17T04:23:32.667Z,13.20
2022-10-17T04:26:01.071Z,13.18
2022-10-17T04:28:28.619Z,13.17
2022-10-17T04:31:00.388Z,13.13
2022-10-17T04:33:27.255Z,13.10
2022-10-17T04:36:00.526Z,13.05
2022-10-17T04:38:28.883Z,13.06
2022-10-17T04:41:04.389Z,13.08
2022-10-17T04:43:33.045Z,13.10
2022-10-17T04:46:05.211Z,13.09
2022-10-17T04:48:32.294Z,13.09
2022-10-17T04:51:01.623Z,13.15
2022-10-17T04:53:30.831Z,13.16
2022-10-17T04:55:57.925Z,13.14
2022-10-17T04:58:25.120Z,13.13
2022-10-17T05:00:52.130Z,13.13
2022-10-17T05:03:18.927Z,13.12
2022-10-17T05:05:45.961Z,13.11
2022-10-17T05:08:13.064Z,13.13
2022-10-17T05:10:46.198Z,13.13
2022-10-17T05:13:13.488Z,13.26
2022-10-17T05:15:40.631Z,13.44
2022-10-17T05:18:07.739Z,13.66
2022-10-17T05:20:34.867Z,13.82
2022-10-17T05:23:02.497Z,13.97
2022-10-17T05:25:29.617Z,14.09
2022-10-17T05:27:56.459Z,14.25
2022-10-17T05:30:23.507Z,14.38
2022-10-17T05:32:54.946Z,14.54
2022-10-17T05:35:22.482Z,14.70
2022-10-17T05:37:49.458Z,14.81
2022-10-17T05:40:16.851Z,14.95
2022-10-17T05:42:49.992Z,15.12
2022-10-17T05:45:17.142Z,15.28
2022-10-17T05:47:43.904Z,15.41
2022-10-17T05:50:11.033Z,15.58
2022-10-17T05:52:37.958Z,15.73
2022-10-17T05:55:06.050Z,15.92
2022-10-17T05:57:32.825Z,16.10
2022-10-17T06:00:00.997Z,16.30
2022-10-17T06:02:28.052Z,16.50
2022-10-17T06:04:55.316Z,16.71
2022-10-17T06:07:22.079Z,16.85
2022-10-17T06:09:49.120Z,16.92
2022-10-17T06:12:15.957Z,17.07
2022-10-17T06:14:42.915Z,17.21
2022-10-17T06:17:14.853Z,17.45
2022-10-17T06:19:44.728Z,17.58
2022-10-17T06:22:12.324Z,17.63
2022-10-17T06:24:39.381Z,17.79
2022-10-17T06:27:10.878Z,18.12
2022-10-17T06:29:39.484Z,18.28
2022-10-17T06:32:08.738Z,18.43
2022-10-17T06:34:38.324Z,18.56
2022-10-17T06:37:05.193Z,18.62
2022-10-17T06:39:33.937Z,18.64
2022-10-17T06:42:01.443Z,18.73
2022-10-17T06:44:32.047Z,18.74
2022-10-17T06:46:59.731Z,18.92
2022-10-17T06:49:27.804Z,19.01
2022-10-17T06:51:54.803Z,19.16
2022-10-17T06:54:21.868Z,19.26
2022-10-17T06:56:48.702Z,19.35
2022-10-17T06:59:15.890Z,19.37
2022-10-17T07:01:46.131Z,19.47
2022-10-17T07:04:14.692Z,19.46
2022-10-17T07:06:41.633Z,19.46
2022-10-17T07:09:09.046Z,19.67
2022-10-17T07:11:35.897Z,20.21
2022-10-17T07:14:03.398Z,20.53
2022-10-17T07:16:30.238Z,20.51
2022-10-17T07:18:57.246Z,20.62
2022-10-17T07:21:24.125Z,20.71
2022-10-17T07:23:51.177Z,20.79
2022-10-17T07:26:18.954Z,20.82
2022-10-17T07:28:50.967Z,21.03
2022-10-17T07:31:19.391Z,21.12
2022-10-17T07:36:18.854Z,21.35
2022-10-17T07:38:45.866Z,21.38
2022-10-17T07:41:17.809Z,21.66
2022-10-17T07:43:48.091Z,21.72
2022-10-17T07:46:15.141Z,21.78
2022-10-17T07:48:42.242Z,21.83
2022-10-17T07:51:10.055Z,21.67
2022-10-17T07:53:38.735Z,21.49
2022-10-17T07:56:07.717Z,21.73
2022-10-17T07:58:35.827Z,21.87
2022-10-17T08:01:10.731Z,21.98
2022-10-17T08:03:41.835Z,22.29
2022-10-17T08:06:08.675Z,22.25
2022-10-17T08:08:35.629Z,22.39
2022-10-17T08:11:06.046Z,22.63
2022-10-17T08:13:33.970Z,22.82
2022-10-17T08:16:02.205Z,22.90
2022-10-17T08:18:29.324Z,22.88
2022-10-17T08:21:00.311Z,23.14
2022-10-17T08:23:29.014Z,23.07
2022-10-17T08:25:59.813Z,23.18
2022-10-17T08:28:26.901Z,23.51
2022-10-17T08:30:53.783Z,24.10
2022-10-17T08:33:20.800Z,24.46
2022-10-17T08:35:47.534Z,24.42
2022-10-17T08:38:15.280Z,24.51
2022-10-17T08:40:43.501Z,24.44
2022-10-17T08:43:19.758Z,24.47
2022-10-17T08:45:56.399Z,24.76
2022-10-17T08:48:25.751Z,24.92
2022-10-17T08:50:57.586Z,25.07
2022-10-17T08:54:03.589Z,24.90
2022-10-17T08:56:51.327Z,24.49
2022-10-17T08:59:23.180Z,24.50
2022-10-17T09:02:03.702Z,24.47
2022-10-17T09:05:05.143Z,24.28
2022-10-17T09:07:51.955Z,24.37
2022-10-17T09:10:32.675Z,24.62
2022-10-17T09:13:08.770Z,24.93
2022-10-17T09:15:54.180Z,25.19
2022-10-17T09:18:38.113Z,25.34
2022-10-17T09:21:44.441Z,25.19
2022-10-17T09:24:25.358Z,25.27
2022-10-17T09:26:53.595Z,25.52
2022-10-17T09:29:24.171Z,25.98
2022-10-17T09:32:09.076Z,26.23
2022-10-17T09:34:35.849Z,26.30
2022-10-17T09:37:03.589Z,26.30
2022-10-17T09:39:33.587Z,26.59
2022-10-17T09:42:01.841Z,27.23
2022-10-17T09:44:42.713Z,27.35
2022-10-17T09:47:20.663Z,27.38
2022-10-17T09:49:48.964Z,27.53
2022-10-17T09:52:28.660Z,27.44
2022-10-17T09:55:07.196Z,27.87
2022-10-17T09:57:57.152Z,27.67
2022-10-17T10:00:30.490Z,27.67
2022-10-17T10:03:13.901Z,27.62
2022-10-17T10:05:42.031Z,28.01
2022-10-17T10:08:16.330Z,27.77
2022-10-17T10:10:44.511Z,27.72
2022-10-17T10:13:14.545Z,27.48
2022-10-17T10:15:42.618Z,27.47
2022-10-17T10:18:25.387Z,27.26
2022-10-17T10:21:11.915Z,27.15
2022-10-17T10:23:44.483Z,27.36
2022-10-17T10:26:23.263Z,27.08
2022-10-17T10:29:00.817Z,27.25
2022-10-17T10:31:31.621Z,27.06
2022-10-17T10:34:01.288Z,26.99
2022-10-17T10:36:44.155Z,27.40
2022-10-17T10:39:28.224Z,27.70
2022-10-17T10:41:55.521Z,27.48
2022-10-17T10:44:27.355Z,27.45
2022-10-17T10:47:17.469Z,27.72
2022-10-17T10:49:44.827Z,28.10
2022-10-17T10:52:29.858Z,28.27
2022-10-17T10:55:32.241Z,27.92
2022-10-17T10:58:10.313Z,28.04
2022-10-17T11:00:38.850Z,28.19
2022-10-17T11:03:32.840Z,28.28
2022-10-17T11:06:06.168Z,28.57
2022-10-17T11:08:45.857Z,28.43
2022-10-17T11:11:30.524Z,28.63
2022-10-17T11:14:29.182Z,28.98
2022-10-17T11:17:21.168Z,29.50
2022-10-17T11:20:09.771Z,29.64
2022-10-17T11:22:43.244Z,30.03
2022-10-17T11:25:09.970Z,30.06
2022-10-17T11:27:37.097Z,29.78
2022-10-17T11:30:05.993Z,29.63
2022-10-17T11:32:47.804Z,29.31
2022-10-17T11:35:27.972Z,29.30
2022-10-17T11:38:28.860Z,29.62
2022-10-17T11:40:58.868Z,29.57
2022-10-17T11:43:32.361Z,29.43
2022-10-17T11:46:20.567Z,29.01
2022-10-17T11:48:50.454Z,28.76
2022-10-17T11:54:17.706Z,28.47
2022-10-17T11:57:03.297Z,28.59
2022-10-17T11:59:54.186Z,28.52
2022-10-17T12:02:46.734Z,28.19
2022-10-17T12:05:28.310Z,28.38
2022-10-17T12:08:04.977Z,28.23
2022-10-17T12:10:37.820Z,28.04
2022-10-17T12:13:29.293Z,27.78
2022-10-17T12:16:17.625Z,27.52
2022-10-17T12:18:45.096Z,27.16
2022-10-17T12:21:12.383Z,27.02
2022-10-17T12:23:40.112Z,26.98
2022-10-17T12:26:09.541Z,26.82
2022-10-17T12:28:48.037Z,26.88
2022-10-17T12:31:19.134Z,27.04
2022-10-17T12:33:52.171Z,27.07
2022-10-17T12:36:21.147Z,27.54
2022-10-17T12:39:11.802Z,27.78
2022-10-17T12:41:38.770Z,27.66
2022-10-17T12:44:25.711Z,27.15
2022-10-17T12:46:56.688Z,27.16
2022-10-17T12:49:39.056Z,27.03
2022-10-17T12:52:47.842Z,26.69
2022-10-17T12:55:18.250Z,26.60
2022-10-17T12:57:53.404Z,26.48
2022-10-17T13:00:36.066Z,26.38
2022-10-17T13:03:26.152Z,26.44
2022-10-17T13:05:55.801Z,26.48
2022-10-17T13:08:27.191Z,26.28
2022-10-17T13:10:55.303Z,26.02
2022-10-17T13:13:33.881Z,26.00
2022-10-17T13:16:01.033Z,25.95
2022-10-17T13:18:29.776Z,25.90
2022-10-17T13:20:59.443Z,25.91
2022-10-17T13:23:30.591Z,26.12
2022-10-17T13:26:27.485Z,26.11
2022-10-17T13:29:04.568Z,25.85
2022-10-17T13:31:34.773Z,25.64
2022-10-17T13:34:05.193Z,25.62
2022-10-17T13:36:34.163Z,25.57
2022-10-17T13:39:12.450Z,25.49
2022-10-17T13:41:41.971Z,25.17
2022-10-17T13:44:32.131Z,24.99
2022-10-17T13:46:59.260Z,24.90
2022-10-17T13:49:40.758Z,24.54
2022-10-17T13:52:17.063Z,24.21
2022-10-17T13:54:47.287Z,23.92
2022-10-17T13:57:24.321Z,23.66
2022-10-17T13:59:58.482Z,23.40
2022-10-17T14:02:27.776Z,23.19
2022-10-17T14:05:20.149Z,22.89
2022-10-17T14:08:11.492Z,22.53
2022-10-17T14:10:42.515Z,22.25
2022-10-17T14:13:31.295Z,22.01
2022-10-17T14:16:01.357Z,21.81
2022-10-17T14:18:36.406Z,21.66
2022-10-17T14:21:36.841Z,21.50
2022-10-17T14:24:11.991Z,21.37
2022-10-17T14:26:48.153Z,21.23
2022-10-17T14:29:27.487Z,21.11
2022-10-17T14:32:10.911Z,21.01
2022-10-17T14:34:40.734Z,20.87
2022-10-17T14:37:26.856Z,20.74
2022-10-17T14:39:55.319Z,20.64
2022-10-17T14:42:23.519Z,20.55
2022-10-17T14:44:52.302Z,20.46
2022-10-17T14:47:42.796Z,20.36
2022-10-17T14:50:10.598Z,20.25
2022-10-17T14:52:39.064Z,20.13
2022-10-17T14:55:25.471Z,20.03
2022-10-17T14:57:52.470Z,19.93
2022-10-17T15:00:21.320Z,19.84
2022-10-17T15:02:49.441Z,19.70
2022-10-17T15:05:16.915Z,19.58
2022-10-17T15:07:43.943Z,19.46
2022-10-17T15:10:21.057Z,19.33
2022-10-17T15:12:58.825Z,19.21
2022-10-17T15:15:31.821Z,19.08
2022-10-17T15:17:59.475Z,18.96
2022-10-17T15:20:29.523Z,18.81
2022-10-17T15:22:58.598Z,18.74
2022-10-17T15:25:26.069Z,18.63
2022-10-17T15:27:53.817Z,18.52
2022-10-17T15:30:27.157Z,18.43
2022-10-17T15:32:54.460Z,18.38
2022-10-17T15:35:22.554Z,18.30
2022-10-17T15:37:49.848Z,18.19
2022-10-17T15:40:25.318Z,18.13
2022-10-17T15:42:52.431Z,18.09
2022-10-17T15:45:22.199Z,17.99
2022-10-17T15:48:02.439Z,17.82
2022-10-17T15:50:30.628Z,17.69
2022-10-17T15:52:57.592Z,17.54
2022-10-17T15:55:24.566Z,17.41
2022-10-17T15:57:51.720Z,17.29
2022-10-17T16:00:23.990Z,17.20
2022-10-17T16:02:51.326Z,17.10
2022-10-17T16:05:29.205Z,17.03
2022-10-17T16:07:57.620Z,16.93
2022-10-17T16:10:25.957Z,16.87
2022-10-17T16:12:52.995Z,16.82
2022-10-17T16:15:25.256Z,16.77
2022-10-17T16:17:53.777Z,16.72
2022-10-17T16:20:21.331Z,16.66
2022-10-17T16:22:49.238Z,16.64
2022-10-17T16:25:19.571Z,16.60
2022-10-17T16:27:48.494Z,16.58
2022-10-17T16:30:16.127Z,16.52
2022-10-17T16:32:43.512Z,16.48
2022-10-17T16:35:19.660Z,16.46
2022-10-17T16:37:47.601Z,16.42
2022-10-17T16:40:15.095Z,16.41
2022-10-17T16:42:42.222Z,16.36
2022-10-17T16:45:10.201Z,16.34
2022-10-17T16:47:37.223Z,16.33
2022-10-17T16:50:04.051Z,16.29
2022-10-17T16:52:31.190Z,16.19
2022-10-17T16:54:58.327Z,16.06
2022-10-17T16:57:25.380Z,15.98
2022-10-17T16:59:52.761Z,15.85
2022-10-17T17:02:21.329Z,15.71
2022-10-17T17:04:48.466Z,15.62
2022-10-17T17:07:17.430Z,15.57
2022-10-17T17:09:44.207Z,15.51
2022-10-17T17:12:11.296Z,15.49
2022-10-17T17:14:38.544Z,15.51
2022-10-17T17:17:05.770Z,15.57
2022-10-17T17:19:32.681Z,15.61
2022-10-17T17:21:59.671Z,15.71
2022-10-17T17:24:26.738Z,15.74
2022-10-17T17:26:55.254Z,15.76
2022-10-17T17:29:23.334Z,15.78
2022-10-17T17:31:51.097Z,15.83
2022-10-17T17:34:18.376Z,15.85
2022-10-17T17:36:45.999Z,15.85
2022-10-17T17:39:14.697Z,15.87
2022-10-17T17:41:42.904Z,15.85
2022-10-17T17:44:15.640Z,15.86
2022-10-17T17:46:44.439Z,15.85
2022-10-17T17:49:11.712Z,15.76
2022-10-17T17:51:38.781Z,15.68
2022-10-17T17:54:05.533Z,15.61
2022-10-17T17:56:32.624Z,15.57
2022-10-17T17:59:01.800Z,15.51
2022-10-17T18:01:31.468Z,15.52
2022-10-17T18:03:59.467Z,15.48
2022-10-17T18:06:27.248Z,15.52
2022-10-17T18:08:58.024Z,15.53
2022-10-17T18:11:26.229Z,15.56
2022-10-17T18:13:58.027Z,15.62
2022-10-17T18:16:26.732Z,15.59
2022-10-17T18:18:53.643Z,15.46
2022-10-17T18:21:21.174Z,15.37
2022-10-17T18:23:49.634Z,15.35
2022-10-17T18:26:16.642Z,15.31
2022-10-17T18:28:44.207Z,15.30
2022-10-17T18:31:15.522Z,15.27
2022-10-17T18:33:44.665Z,15.24
2022-10-17T18:36:12.528Z,15.23
2022-10-17T18:38:39.911Z,15.34
2022-10-17T18:41:09.741Z,15.45
2022-10-17T18:43:37.952Z,15.49
2022-10-17T18:46:14.871Z,15.49
2022-10-17T18:48:44.640Z,15.48
2022-10-17T18:51:13.004Z,15.43
2022-10-17T18:53:41.643Z,15.41
2022-10-17T18:56:09.252Z,15.38
2022-10-17T18:58:37.832Z,15.35
2022-10-17T19:01:07.672Z,15.31
2022-10-17T19:03:34.439Z,15.28
2022-10-17T19:06:03.108Z,15.25
2022-10-17T19:08:30.036Z,15.23
2022-10-17T19:10:57.064Z,15.28
2022-10-17T19:13:23.910Z,15.27
2022-10-17T19:15:50.958Z,15.20
2022-10-17T19:18:17.749Z,15.17
2022-10-17T19:20:46.022Z,15.12
2022-10-17T19:23:12.973Z,15.14
2022-10-17T19:25:39.970Z,15.18
2022-10-17T19:28:06.789Z,15.21
2022-10-17T19:30:33.789Z,15.27
2022-10-17T19:33:00.607Z,15.33
2022-10-17T19:35:27.542Z,15.44
2022-10-17T19:37:54.299Z,15.46
2022-10-17T19:40:21.253Z,15.50
2022-10-17T19:42:48.117Z,15.52
2022-10-17T19:45:15.217Z,15.54
2022-10-17T19:47:41.971Z,15.57
2022-10-17T19:50:09.141Z,15.53
2022-10-17T19:52:35.932Z,15.54
2022-10-17T19:55:03.004Z,15.54
2022-10-17T19:57:29.737Z,15.55
2022-10-17T19:59:57.550Z,15.55
2022-10-17T20:02:24.338Z,15.51
2022-10-17T20:05:06.328Z,15.45
2022-10-17T20:07:41.889Z,15.39
2022-10-17T20:10:09.271Z,15.35
2022-10-17T20:12:36.134Z,15.33
2022-10-17T20:15:03.537Z,15.31
2022-10-17T20:17:30.417Z,15.31
2022-10-17T20:19:57.524Z,15.34
2022-10-17T20:22:24.270Z,15.36
2022-10-17T20:24:51.278Z,15.33
2022-10-17T20:27:18.157Z,15.36
2022-10-17T20:29:45.112Z,15.37
2022-10-17T20:32:11.882Z,15.41
2022-10-17T20:34:39.502Z,15.41
2022-10-17T20:37:06.338Z,15.39
2022-10-17T20:39:33.347Z,15.43
2022-10-17T20:42:00.170Z,15.45
2022-10-17T20:44:27.252Z,15.41
2022-10-17T20:47:01.734Z,15.36
2022-10-17T20:49:30.812Z,15.37
2022-10-17T20:51:58.525Z,15.39
2022-10-17T20:54:25.908Z,15.38
2022-10-17T20:56:52.780Z,15.36
2022-10-17T20:59:20.235Z,15.36
2022-10-17T21:01:47.863Z,15.40
2022-10-17T21:04:44.758Z,15.44
2022-10-17T21:07:02.226Z,15.43
2022-10-17T21:09:29.347Z,15.37
2022-10-17T21:11:56.937Z,15.36
2022-10-17T21:14:25.149Z,15.35
2022-10-17T21:16:52.368Z,15.31
2022-10-17T21:19:19.749Z,15.32
2022-10-17T21:21:46.799Z,15.27
2022-10-17T21:24:17.881Z,15.23
2022-10-17T21:26:46.069Z,15.23
2022-10-17T21:29:13.898Z,15.18
2022-10-17T21:31:43.347Z,15.13
2022-10-17T21:34:17.500Z,15.11
2022-10-17T21:36:45.107Z,15.07
2022-10-17T21:39:13.137Z,15.04
2022-10-17T21:41:40.269Z,15.03
2022-10-17T21:44:15.310Z,15.05
2022-10-17T21:46:42.551Z,15.06
2022-10-17T21:49:12.311Z,15.02
2022-10-17T21:51:39.731Z,14.97
2022-10-17T21:54:06.791Z,15.02
2022-10-17T21:56:34.903Z,14.99
2022-10-17T21:59:02.173Z,14.97
2022-10-17T22:01:32.346Z,14.98
2022-10-17T22:04:02.501Z,15.04
2022-10-17T22:06:40.619Z,15.05
2022-10-17T22:09:17.149Z,15.05
2022-10-17T22:11:49.082Z,15.07
2022-10-17T22:14:18.629Z,15.06
2022-10-17T22:16:46.621Z,15.03
2022-10-17T22:19:21.207Z,15.03
2022-10-17T22:21:48.394Z,15.02
2022-10-17T22:24:17.474Z,15.02
2022-10-17T22:26:44.973Z,15.04
2022-10-17T22:29:12.434Z,15.06
2022-10-17T22:31:39.766Z,15.05
2022-10-17T22:34:07.702Z,15.00
2022-10-17T22:36:35.233Z,14.95
2022-10-17T22:39:03.260Z,14.99
2022-10-17T22:41:30.021Z,14.98
2022-10-17T22:43:56.990Z,14.95
2022-10-17T22:46:23.867Z,14.96
2022-10-17T22:48:50.859Z,14.97
2022-10-17T22:51:17.956Z,15.00
2022-10-17T22:53:44.929Z,15.02
2022-10-17T22:56:14.977Z,15.05
2022-10-17T22:58:42.334Z,15.08
2022-10-17T23:01:13.132Z,15.10
2022-10-17T23:03:40.223Z,15.08
2022-10-17T23:06:07.068Z,15.06
2022-10-17T23:08:34.155Z,15.09
2022-10-17T23:11:00.974Z,15.10
2022-10-17T23:13:28.131Z,15.09
2022-10-17T23:15:56.866Z,15.05
2022-10-17T23:18:25.814Z,14.99
2022-10-17T23:20:53.399Z,15.01
2022-10-17T23:23:21.377Z,14.99
2022-10-17T23:25:49.447Z,14.99
2022-10-17T23:28:17.076Z,14.97
2022-10-17T23:30:44.181Z,15.00
2022-10-17T23:33:12.615Z,14.99
2022-10-17T23:35:39.420Z,14.95
2022-10-17T23:38:06.509Z,14.92
2022-10-17T23:40:34.862Z,14.97
2022-10-17T23:43:02.167Z,14.94
2022-10-17T23:48:12.708Z,15.00
2022-10-17T23:50:39.447Z,14.91
2022-10-17T23:53:06.395Z,14.87
2022-10-17T23:55:33.124Z,14.85
2022-10-17T23:58:00.076Z,14.84
